Time;durP1;ratioP1;P1;durP2;ratioP2;P2;SDS_P1;SDS_P2;PMS_P1;PMS_P2;Temp;Humidity;BMP_temperature;BMP_pressure;BME280_temperature;BME280_humidity;BME280_pressure;Samples;Min_cycle;Max_cycle;Signal;HPM_P1;HPM_P2
2022/04/17 00:02:24;;;;;;;11.85;6.13;;;8.70;99.90;;;;;;5076528;28;20044;-72
2022/04/17 00:04:50;;;;;;;8.70;5.40;;;8.70;99.90;;;;;;5109415;27;20044;-72
2022/04/17 00:07:15;;;;;;;9.73;5.72;;;8.60;99.90;;;;;;5110008;28;20075;-72
2022/04/17 00:09:41;;;;;;;8.80;5.78;;;8.60;99.90;;;;;;5091838;28;20055;-71
2022/04/17 00:12:07;;;;;;;8.38;6.28;;;8.60;99.90;;;;;;5124116;27;20035;-72
2022/04/17 00:14:32;;;;;;;9.73;6.40;;;8.50;99.90;;;;;;5128398;27;20489;-72
2022/04/17 00:16:58;;;;;;;10.55;6.82;;;8.50;99.90;;;;;;5109786;27;20162;-72
2022/04/17 00:19:24;;;;;;;10.10;6.50;;;8.50;99.90;;;;;;5110258;28;20047;-72
2022/04/17 00:21:49;;;;;;;9.15;5.93;;;8.40;99.90;;;;;;5107206;27;20038;-72
2022/04/17 00:24:16;;;;;;;10.25;6.10;;;8.40;99.90;;;;;;5127642;27;20043;-71
2022/04/17 00:26:41;;;;;;;9.77;6.35;;;8.40;99.90;;;;;;5108983;28;20130;-71
2022/04/17 00:29:07;;;;;;;10.45;5.85;;;8.40;99.90;;;;;;5109823;27;20089;-71
2022/04/17 00:31:33;;;;;;;9.65;6.30;;;8.30;99.90;;;;;;5108592;28;20039;-72
2022/04/17 00:33:58;;;;;;;9.07;6.28;;;8.30;99.90;;;;;;5109095;28;20119;-72
2022/04/17 00:36:24;;;;;;;9.10;6.13;;;8.30;99.90;;;;;;5111905;27;20114;-72
2022/04/17 00:38:50;;;;;;;8.02;6.07;;;8.30;99.90;;;;;;5092804;28;20050;-72
2022/04/17 00:41:15;;;;;;;9.85;6.60;;;9.00;99.90;;;;;;5094033;27;20040;-72
2022/04/17 00:43:47;;;;;;;9.82;5.90;;;8.20;99.90;;;;;;5124758;27;20458;-72
2022/04/17 00:46:13;;;;;;;9.98;6.35;;;8.20;99.90;;;;;;5109100;27;20043;-72
2022/04/17 00:48:39;;;;;;;9.23;6.13;;;8.20;99.90;;;;;;5116278;27;20495;-72
2022/04/17 00:51:05;;;;;;;10.60;6.10;;;8.20;99.90;;;;;;5132190;27;20114;-72
2022/04/17 00:53:32;;;;;;;10.93;6.55;;;8.10;99.90;;;;;;5112486;27;20078;-72
2022/04/17 00:55:58;;;;;;;9.40;5.90;;;9.00;99.90;;;;;;5106770;28;20044;-72
2022/04/17 00:58:26;;;;;;;8.35;5.82;;;8.10;99.90;;;;;;5109419;28;20051;-72
2022/04/17 01:00:52;;;;;;;11.18;6.38;;;8.10;99.90;;;;;;5072591;28;20032;-72
2022/04/17 01:03:19;;;;;;;9.90;6.47;;;8.00;99.90;;;;;;5109061;27;20045;-72
2022/04/17 01:05:46;;;;;;;8.73;6.20;;;8.00;99.90;;;;;;5108477;28;20484;-72
2022/04/17 01:08:13;;;;;;;9.88;6.57;;;8.00;99.90;;;;;;5109072;27;20111;-72
2022/04/17 01:10:39;;;;;;;9.27;6.03;;;8.00;99.90;;;;;;5108994;28;20092;-72
2022/04/17 01:13:09;;;;;;;8.20;5.75;;;7.90;99.90;;;;;;5110316;27;20066;-72
2022/04/17 01:15:36;;;;;;;8.95;6.00;;;7.80;99.90;;;;;;5109546;28;20074;-72
2022/04/17 01:18:02;;;;;;;9.13;6.03;;;7.80;99.90;;;;;;5081792;27;20138;-72
2022/04/17 01:20:27;;;;;;;9.48;6.05;;;7.80;99.90;;;;;;5091176;28;20174;-72
2022/04/17 01:26:56;;;;;;;9.38;6.60;;;7.80;99.90;;;;;;5072487;28;20036;-72
2022/04/17 01:28:26;;;;;;;;;;;7.70;99.90;;;;;;5129635;27;20070;-72
2022/04/17 01:30:55;;;;;;;;;;;8.20;99.90;;;;;;5129378;27;19923;-72
2022/04/17 01:33:21;;;;;;;9.68;6.22;;;7.70;99.90;;;;;;5128663;27;19919;-72
2022/04/17 01:35:47;;;;;;;8.35;6.00;;;7.60;99.90;;;;;;5103697;28;20130;-73
2022/04/17 01:38:13;;;;;;;9.18;6.05;;;7.60;99.90;;;;;;5125896;27;20038;-72
2022/04/17 01:40:39;;;;;;;9.68;6.10;;;7.60;99.90;;;;;;5130184;27;20091;-72
2022/04/17 01:43:11;;;;;;;10.15;5.93;;;7.60;99.90;;;;;;5128623;27;20114;-72
2022/04/17 01:45:37;;;;;;;9.73;6.50;;;7.60;99.90;;;;;;5128527;27;20035;-72
2022/04/17 01:48:03;;;;;;;8.60;5.95;;;7.60;99.90;;;;;;5127508;27;20479;-72
2022/04/17 01:50:30;;;;;;;8.48;6.07;;;7.60;99.90;;;;;;5108225;27;20047;-72
2022/04/17 01:52:59;;;;;;;10.18;6.57;;;7.60;99.90;;;;;;5075858;28;20055;-72
2022/04/17 01:55:26;;;;;;;8.88;5.90;;;7.60;99.90;;;;;;5074016;28;20102;-72
2022/04/17 01:57:51;;;;;;;9.00;6.13;;;7.60;99.90;;;;;;5125382;28;20042;-72
2022/04/17 02:00:17;;;;;;;10.07;6.40;;;7.60;99.90;;;;;;5110420;27;20051;-72
2022/04/17 02:02:43;;;;;;;10.32;6.40;;;8.30;99.90;;;;;;5097472;28;20495;-72
2022/04/17 02:05:09;;;;;;;10.98;6.45;;;7.50;99.90;;;;;;5118732;27;20176;-72
2022/04/17 02:07:36;;;;;;;9.02;6.05;;;7.50;99.90;;;;;;5099153;28;20035;-72
2022/04/17 02:10:04;;;;;;;11.27;6.45;;;7.40;99.90;;;;;;5115131;27;20142;-72
2022/04/17 02:12:29;;;;;;;8.90;6.03;;;7.40;99.90;;;;;;5114854;27;20055;-72
2022/04/17 02:14:56;;;;;;;9.88;6.43;;;7.40;99.90;;;;;;5133026;27;20039;-72
2022/04/17 02:17:21;;;;;;;9.70;6.45;;;7.40;99.90;;;;;;5123309;27;20043;-72
2022/04/17 02:19:47;;;;;;;9.98;6.57;;;7.40;99.90;;;;;;5112196;27;20048;-72
2022/04/17 02:22:13;;;;;;;10.95;7.57;;;7.30;99.90;;;;;;5115221;27;20047;-72
2022/04/17 02:24:39;;;;;;;11.07;7.32;;;7.30;99.90;;;;;;5134164;27;20039;-72
2022/04/17 02:27:04;;;;;;;11.48;6.78;;;7.50;99.90;;;;;;5116572;27;20028;-72
2022/04/17 02:29:32;;;;;;;11.77;6.72;;;7.30;99.90;;;;;;5117243;27;20039;-72
2022/04/17 02:31:58;;;;;;;11.15;6.88;;;8.00;99.90;;;;;;5133365;27;20035;-72
2022/04/17 02:34:24;;;;;;;10.07;7.13;;;7.20;99.90;;;;;;5135571;27;20578;-72
2022/04/17 02:36:49;;;;;;;12.68;7.40;;;7.20;99.90;;;;;;5119085;27;20058;-72
2022/04/17 02:39:15;;;;;;;10.40;7.22;;;7.20;99.90;;;;;;5115492;27;20039;-72
2022/04/17 02:41:40;;;;;;;11.80;6.88;;;7.20;99.90;;;;;;5113855;27;20097;-72
2022/04/17 02:44:06;;;;;;;9.55;6.80;;;7.10;99.90;;;;;;5114641;27;20047;-72
2022/04/17 02:49:16;;;;;;;10.90;7.05;;;7.30;99.90;;;;;;5115261;28;20429;-72
2022/04/17 02:51:41;;;;;;;10.75;6.68;;;7.10;99.90;;;;;;5109944;27;20039;-72
2022/04/17 02:54:07;;;;;;;10.57;6.47;;;7.10;99.90;;;;;;5112880;27;20035;-72
2022/04/17 02:56:33;;;;;;;10.88;7.40;;;7.00;99.90;;;;;;5134830;27;20076;-72
2022/04/17 02:58:58;;;;;;;11.25;7.60;;;7.00;99.90;;;;;;5115945;27;20043;-72
2022/04/17 03:06:53;;;;;;;10.48;7.75;;;7.00;99.90;;;;;;5115566;27;20419;-72
2022/04/17 03:09:19;;;;;;;12.18;7.93;;;7.00;99.90;;;;;;5136070;27;20043;-72
2022/04/17 03:11:45;;;;;;;11.63;8.45;;;6.90;99.90;;;;;;5114050;28;20035;-72
2022/04/17 03:14:10;;;;;;;12.63;8.60;;;6.90;99.90;;;;;;5095745;27;20042;-72
2022/04/17 03:16:36;;;;;;;13.30;8.85;;;6.90;99.90;;;;;;5115520;27;20488;-72
2022/04/17 03:19:02;;;;;;;13.50;8.77;;;6.80;99.90;;;;;;5111729;28;20154;-72
2022/04/17 03:21:28;;;;;;;12.38;9.07;;;6.80;99.90;;;;;;5098716;27;20051;-72
2022/04/17 03:23:54;;;;;;;13.82;9.40;;;6.80;99.90;;;;;;5115789;27;20043;-72
2022/04/17 03:26:19;;;;;;;13.23;9.02;;;6.70;99.90;;;;;;5115531;27;20107;-72
2022/04/17 03:28:48;;;;;;;13.32;8.85;;;6.70;99.90;;;;;;5130664;27;20039;-72
2022/04/17 03:31:13;;;;;;;12.38;8.68;;;6.70;99.90;;;;;;5113054;27;20079;-72
2022/04/17 03:33:39;;;;;;;14.18;9.23;;;6.60;99.90;;;;;;5131296;27;20527;-72
2022/04/17 03:36:04;;;;;;;13.07;9.02;;;6.60;99.90;;;;;;5121372;27;20099;-72
2022/04/17 03:38:30;;;;;;;14.40;9.30;;;6.60;99.90;;;;;;5111332;28;20063;-72
2022/04/17 03:40:56;;;;;;;14.45;8.75;;;7.00;99.90;;;;;;5114356;27;20093;-71
2022/04/17 03:43:23;;;;;;;13.18;8.93;;;6.50;99.90;;;;;;5104941;28;20436;-71
2022/04/17 03:45:49;;;;;;;15.95;9.90;;;7.20;99.90;;;;;;5110660;27;20119;-70
2022/04/17 03:48:16;;;;;;;14.48;10.02;;;6.40;99.90;;;;;;5109854;28;20345;-70
2022/04/17 03:50:43;;;;;;;13.57;9.63;;;6.40;99.90;;;;;;5110747;28;20046;-70
2022/04/17 03:53:09;;;;;;;12.75;9.18;;;6.40;99.90;;;;;;5094178;27;20488;-70
2022/04/17 03:55:35;;;;;;;15.15;9.65;;;6.30;99.90;;;;;;5124014;27;20115;-71
2022/04/17 03:58:04;;;;;;;15.43;9.57;;;6.30;99.90;;;;;;5110687;28;20053;-70
2022/04/17 04:00:30;;;;;;;12.32;8.90;;;6.30;99.90;;;;;;5112496;27;20118;-71
2022/04/17 04:02:56;;;;;;;12.38;8.93;;;6.20;99.90;;;;;;5112868;27;20051;-70
2022/04/17 04:05:21;;;;;;;13.57;9.15;;;6.20;99.90;;;;;;5131289;27;20035;-70
2022/04/17 04:07:47;;;;;;;13.23;9.10;;;5.90;99.90;;;;;;5112417;27;20082;-70
2022/04/17 04:10:14;;;;;;;13.65;9.27;;;7.50;99.90;;;;;;5111908;27;20039;-71
2022/04/17 04:12:39;;;;;;;13.40;8.95;;;6.10;99.90;;;;;;5111911;27;20102;-70
2022/04/17 04:15:06;;;;;;;13.70;9.05;;;6.10;99.90;;;;;;5125198;27;20055;-71
2022/04/17 04:17:32;;;;;;;12.68;8.90;;;6.10;99.90;;;;;;5116903;27;20505;-71
2022/04/17 04:19:58;;;;;;;13.05;9.55;;;6.10;99.90;;;;;;5087427;28;20043;-70
2022/04/17 04:22:24;;;;;;;13.48;8.68;;;6.10;99.90;;;;;;5090032;28;20044;-69
2022/04/17 04:24:50;;;;;;;12.65;9.00;;;6.10;99.90;;;;;;5091578;27;20476;-70
2022/04/17 04:29:59;;;;;;;16.10;9.95;;;6.00;99.90;;;;;;5129474;27;20051;-72
2022/04/17 04:32:25;;;;;;;15.07;9.65;;;6.00;99.90;;;;;;5128929;27;20091;-70
2022/04/17 04:34:51;;;;;;;14.98;8.95;;;6.00;99.90;;;;;;5130528;27;20031;-73
2022/04/17 04:37:16;;;;;;;11.52;9.10;;;6.10;99.90;;;;;;5130305;27;20039;-71
2022/04/17 04:39:42;;;;;;;13.95;9.15;;;6.00;99.90;;;;;;5112030;28;20036;-70
2022/04/17 04:42:08;;;;;;;13.30;9.48;;;6.00;99.90;;;;;;5112836;27;20122;-70
2022/04/17 04:44:33;;;;;;;13.45;9.65;;;6.00;99.90;;;;;;5105036;27;20420;-73
2022/04/17 04:46:59;;;;;;;16.27;9.93;;;5.90;99.90;;;;;;5122168;27;20042;-71
2022/04/17 04:49:31;;;;;;;14.00;10.15;;;6.00;99.90;;;;;;5113588;27;20066;-70
2022/04/17 04:52:01;;;;;;;13.63;9.60;;;6.00;99.90;;;;;;5072595;27;20150;-71
2022/04/17 04:54:28;;;;;;;14.98;9.85;;;6.00;99.90;;;;;;5123313;27;20058;-70
2022/04/17 04:56:53;;;;;;;13.90;9.68;;;6.00;99.90;;;;;;5111214;27;20051;-73
2022/04/17 04:59:20;;;;;;;15.82;10.38;;;6.00;99.90;;;;;;5111828;27;20390;-71
2022/04/17 05:01:47;;;;;;;16.98;10.98;;;6.00;99.90;;;;;;5109621;27;20053;-73
2022/04/17 05:04:13;;;;;;;14.77;10.40;;;6.00;99.90;;;;;;5128242;27;20126;-71
2022/04/17 05:06:39;;;;;;;15.23;10.35;;;6.00;99.90;;;;;;5128305;27;20452;-71
2022/04/17 05:09:05;;;;;;;16.05;10.65;;;6.00;99.90;;;;;;5130067;27;20139;-71
2022/04/17 05:11:31;;;;;;;16.55;10.85;;;6.00;99.90;;;;;;5129629;27;20228;-71
2022/04/17 05:13:57;;;;;;;16.52;10.80;;;6.00;99.90;;;;;;5127916;27;20511;-71
2022/04/17 05:16:23;;;;;;;14.63;10.82;;;6.00;99.90;;;;;;5129208;27;20512;-71
2022/04/17 05:18:56;;;;;;;16.70;10.95;;;6.10;99.90;;;;;;5116020;27;20112;-71
2022/04/17 05:21:31;;;;;;;19.20;11.63;;;6.10;99.90;;;;;;5092549;28;20044;-70
2022/04/17 05:23:57;;;;;;;16.75;11.35;;;6.10;99.90;;;;;;5122116;27;20062;-70
2022/04/17 05:26:23;;;;;;;16.17;10.68;;;7.10;99.90;;;;;;5108476;28;20118;-71
2022/04/17 05:28:50;;;;;;;17.27;11.00;;;6.10;99.90;;;;;;5107856;28;20104;-71
2022/04/17 05:31:16;;;;;;;16.80;11.40;;;6.10;99.90;;;;;;5111184;28;20176;-71
2022/04/17 05:33:41;;;;;;;18.08;11.38;;;6.10;99.90;;;;;;5091975;28;20142;-71
2022/04/17 05:36:08;;;;;;;16.23;11.23;;;6.20;99.90;;;;;;5116923;27;20475;-71
2022/04/17 05:38:33;;;;;;;17.70;11.82;;;6.20;99.90;;;;;;5127461;27;20139;-71
2022/04/17 05:40:59;;;;;;;16.23;11.52;;;6.30;99.90;;;;;;5109561;27;20138;-71
2022/04/17 05:43:25;;;;;;;17.40;11.90;;;6.20;99.90;;;;;;5115848;27;20047;-71
2022/04/17 05:45:51;;;;;;;18.08;11.60;;;6.30;99.90;;;;;;5090321;27;20384;-71
2022/04/17 05:48:18;;;;;;;15.88;11.80;;;6.30;99.90;;;;;;5110589;27;20187;-71
2022/04/17 05:50:43;;;;;;;17.33;12.32;;;6.40;99.90;;;;;;5098537;27;20130;-71
2022/04/17 05:53:10;;;;;;;18.45;12.02;;;6.40;99.90;;;;;;5096021;27;20122;-71
2022/04/17 05:55:37;;;;;;;18.80;12.23;;;6.40;99.90;;;;;;5087933;28;20040;-71
2022/04/17 05:58:03;;;;;;;19.73;12.75;;;6.40;99.90;;;;;;5069932;28;20340;-71
2022/04/17 06:00:28;;;;;;;17.40;12.20;;;6.50;99.90;;;;;;5053856;28;20055;-71
2022/04/17 06:02:54;;;;;;;18.27;11.98;;;6.50;99.90;;;;;;5086246;28;20101;-71
2022/04/17 06:05:20;;;;;;;17.80;11.63;;;6.60;99.90;;;;;;5088856;28;20040;-71
2022/04/17 06:07:47;;;;;;;17.60;11.85;;;6.60;99.90;;;;;;5108575;28;20135;-72
2022/04/17 06:10:14;;;;;;;16.67;12.27;;;6.70;99.90;;;;;;5107322;28;20373;-72
2022/04/17 06:12:40;;;;;;;17.02;12.20;;;6.70;99.90;;;;;;5110263;28;20119;-72
2022/04/17 06:15:07;;;;;;;16.95;11.38;;;6.80;99.90;;;;;;5130634;27;20084;-72
2022/04/17 06:17:41;;;;;;;19.92;12.70;;;6.90;99.90;;;;;;5120818;28;20122;-71
2022/04/17 06:20:09;;;;;;;16.77;12.00;;;6.90;99.90;;;;;;5102587;28;20075;-72
2022/04/17 06:22:35;;;;;;;17.13;11.43;;;7.00;99.90;;;;;;5077221;28;20103;-71
2022/04/17 06:25:06;;;;;;;17.02;11.90;;;7.10;99.90;;;;;;5110722;28;20046;-72
2022/04/17 06:27:39;;;;;;;17.67;11.60;;;7.10;99.90;;;;;;5108031;28;20078;-71
2022/04/17 06:30:13;;;;;;;16.30;11.27;;;7.20;99.90;;;;;;5108333;28;20152;-71
2022/04/17 06:32:39;;;;;;;18.58;11.27;;;7.30;99.90;;;;;;5111970;28;20046;-72
2022/04/17 06:35:09;;;;;;;14.30;10.50;;;7.40;99.90;;;;;;5108499;28;20036;-71
2022/04/17 06:38:02;;;;;;;16.17;10.88;;;7.50;99.90;;;;;;5107915;28;20050;-72
2022/04/17 06:40:32;;;;;;;15.25;10.48;;;7.70;99.90;;;;;;5108479;28;20096;-72
2022/04/17 06:43:01;;;;;;;14.15;10.07;;;7.70;99.90;;;;;;5108751;28;20043;-73
2022/04/17 06:45:28;;;;;;;15.48;10.75;;;7.80;99.90;;;;;;5108267;28;20073;-71
2022/04/17 06:47:55;;;;;;;17.45;11.00;;;8.00;99.90;;;;;;5108655;28;20040;-71
2022/04/17 06:50:22;;;;;;;21.65;11.32;;;8.00;99.90;;;;;;5113619;27;20027;-72
2022/04/17 06:52:51;;;;;;;14.70;10.10;;;8.10;99.90;;;;;;5121245;27;20039;-72
2022/04/17 06:55:17;;;;;;;16.88;10.35;;;8.20;99.90;;;;;;5091867;28;20358;-72
2022/04/17 06:57:50;;;;;;;14.50;10.25;;;8.20;99.90;;;;;;5099560;28;20052;-72
2022/04/17 07:00:17;;;;;;;13.88;10.45;;;8.30;99.90;;;;;;5111617;27;20043;-72
2022/04/17 07:02:44;;;;;;;15.85;10.48;;;8.40;99.90;;;;;;5112084;27;20039;-72
2022/04/17 07:05:11;;;;;;;14.27;9.93;;;8.40;99.90;;;;;;5111213;28;20139;-72
2022/04/17 07:07:37;;;;;;;17.40;10.60;;;8.50;99.90;;;;;;5099765;28;20043;-71
2022/04/17 07:10:03;;;;;;;15.40;10.27;;;8.60;99.90;;;;;;5112198;27;20379;-73
2022/04/17 07:12:29;;;;;;;16.83;11.20;;;8.60;99.90;;;;;;5110612;28;20082;-73
2022/04/17 07:14:55;;;;;;;16.67;10.35;;;8.70;99.90;;;;;;5092559;28;20067;-71
2022/04/17 07:17:20;;;;;;;17.23;11.00;;;9.00;99.90;;;;;;5110823;28;20525;-72
2022/04/17 07:19:46;;;;;;;15.43;10.68;;;9.90;99.90;;;;;;5107419;28;20053;-72
2022/04/17 07:22:13;;;;;;;14.32;9.82;;;8.90;99.90;;;;;;5072421;28;20046;-72
2022/04/17 07:24:43;;;;;;;12.32;10.00;;;9.00;99.90;;;;;;5094052;27;20143;-72
2022/04/17 07:27:11;;;;;;;15.82;10.98;;;8.90;99.90;;;;;;5126249;27;20047;-72
2022/04/17 07:29:38;;;;;;;14.75;10.20;;;9.20;99.90;;;;;;5093003;28;20055;-72
2022/04/17 07:32:04;;;;;;;15.02;10.23;;;10.40;99.90;;;;;;5109922;28;20145;-72
2022/04/17 07:34:29;;;;;;;14.48;10.05;;;9.40;99.90;;;;;;5075720;28;20441;-72
2022/04/17 07:36:55;;;;;;;15.25;9.93;;;9.50;99.90;;;;;;5110927;28;20039;-72
2022/04/17 07:39:22;;;;;;;13.57;9.63;;;9.60;99.90;;;;;;5094123;27;20516;-72
2022/04/17 07:41:48;;;;;;;12.75;9.25;;;9.60;99.90;;;;;;5080623;28;20056;-72
2022/04/17 07:44:14;;;;;;;13.93;9.15;;;9.80;99.90;;;;;;5090187;28;20055;-72
2022/04/17 07:46:40;;;;;;;14.23;9.45;;;9.90;99.90;;;;;;5108053;27;20592;-73
2022/04/17 07:49:06;;;;;;;13.30;9.52;;;9.90;99.90;;;;;;5111052;28;20115;-73
2022/04/17 07:51:32;;;;;;;12.98;9.43;;;10.00;99.90;;;;;;5110556;28;20461;-72
2022/04/17 07:53:58;;;;;;;13.38;9.40;;;10.00;99.90;;;;;;5111334;27;20372;-74
2022/04/17 07:56:23;;;;;;;14.60;9.25;;;10.20;99.90;;;;;;5109908;28;20051;-73
2022/04/17 07:58:49;;;;;;;13.15;9.00;;;10.30;99.90;;;;;;5109814;28;20089;-73
2022/04/17 08:01:16;;;;;;;13.55;9.20;;;10.30;99.90;;;;;;5090218;27;20177;-73
2022/04/17 08:06:12;;;;;;;12.80;9.02;;;10.60;99.90;;;;;;5107847;28;20051;-72
2022/04/17 08:08:39;;;;;;;12.30;8.98;;;10.90;99.90;;;;;;5091253;28;20044;-73
2022/04/17 08:11:05;;;;;;;14.00;9.15;;;11.70;99.90;;;;;;5090106;28;20416;-73
2022/04/17 08:13:32;;;;;;;11.88;7.90;;;12.10;99.20;;;;;;5071059;28;20276;-75
2022/04/17 08:15:58;;;;;;;11.85;8.68;;;10.90;98.80;;;;;;5071446;27;20054;-75
2022/04/17 08:18:24;;;;;;;12.52;8.20;;;11.00;98.00;;;;;;5096874;27;20039;-74
2022/04/17 08:20:50;;;;;;;11.30;8.05;;;11.00;97.80;;;;;;5108837;28;20543;-74
2022/04/17 08:23:16;;;;;;;12.00;8.13;;;11.10;98.00;;;;;;5109614;28;20394;-74
2022/04/17 08:25:43;;;;;;;12.57;8.60;;;11.10;97.90;;;;;;5108455;28;20052;-74
2022/04/17 08:28:09;;;;;;;12.00;8.20;;;11.20;98.00;;;;;;5091916;28;20048;-74
2022/04/17 08:30:35;;;;;;;12.15;8.45;;;11.30;97.80;;;;;;5107977;28;20131;-74
2022/04/17 08:33:04;;;;;;;11.00;8.07;;;11.40;97.20;;;;;;5108519;28;20040;-74
2022/04/17 08:35:30;;;;;;;13.23;7.18;;;11.50;96.70;;;;;;5094277;28;20074;-73
2022/04/17 08:38:02;;;;;;;13.15;7.60;;;11.60;96.50;;;;;;5108720;28;20043;-73
2022/04/17 08:40:28;;;;;;;12.57;7.70;;;11.70;96.20;;;;;;5108861;28;20055;-74
2022/04/17 08:42:54;;;;;;;10.52;7.57;;;11.80;95.40;;;;;;5104712;28;20353;-74
2022/04/17 08:45:21;;;;;;;10.15;7.00;;;11.90;95.20;;;;;;5090622;28;20058;-75
2022/04/17 08:47:47;;;;;;;11.55;7.68;;;12.00;95.10;;;;;;5108095;28;20048;-74
2022/04/17 08:50:20;;;;;;;10.48;7.70;;;12.20;94.20;;;;;;5094707;28;20043;-70
2022/04/17 08:52:55;;;;;;;11.70;7.63;;;12.20;94.40;;;;;;5109590;27;20135;-70
2022/04/17 08:55:21;;;;;;;10.73;6.88;;;12.30;93.90;;;;;;5108042;28;20126;-70
2022/04/17 08:57:47;;;;;;;14.40;7.63;;;12.40;93.50;;;;;;5107612;28;20560;-71
2022/04/17 09:00:17;;;;;;;11.43;7.10;;;12.50;93.70;;;;;;5090275;28;20084;-70
2022/04/17 09:02:44;;;;;;;13.32;6.60;;;12.60;93.60;;;;;;5102410;28;20050;-70
2022/04/17 09:05:14;;;;;;;9.43;6.57;;;12.80;92.50;;;;;;5106701;28;20461;-71
2022/04/17 09:07:41;;;;;;;10.57;6.60;;;12.90;91.60;;;;;;5096629;28;20355;-70
2022/04/17 09:10:07;;;;;;;9.75;7.28;;;13.10;92.00;;;;;;5087342;28;20044;-71
2022/04/17 09:12:33;;;;;;;9.32;7.30;;;13.30;92.90;;;;;;5087505;28;20119;-70
2022/04/17 09:14:59;;;;;;;9.73;6.72;;;14.10;93.10;;;;;;5086513;28;20135;-70
2022/04/17 09:17:34;;;;;;;11.35;6.95;;;13.70;92.00;;;;;;5086286;28;20545;-71
2022/04/17 09:20:01;;;;;;;11.70;7.40;;;13.90;92.00;;;;;;5087920;28;20063;-71
2022/04/17 09:22:47;;;;;;;9.15;7.32;;;14.20;91.60;;;;;;5088617;28;20051;-71
2022/04/17 09:25:13;;;;;;;10.18;7.50;;;14.40;92.00;;;;;;5095199;28;20051;-70
2022/04/17 09:27:42;;;;;;;12.00;6.47;;;14.70;91.50;;;;;;5107472;28;20130;-71
2022/04/17 09:30:29;;;;;;;10.02;6.13;;;15.10;88.20;;;;;;5104370;28;20036;-71
2022/04/17 09:32:56;;;;;;;8.57;6.00;;;15.80;83.50;;;;;;5063152;28;20060;-70
2022/04/17 09:35:25;;;;;;;9.25;6.15;;;17.70;76.90;;;;;;5068718;28;20404;-73
2022/04/17 09:37:59;;;;;;;8.27;5.32;;;19.70;69.70;;;;;;5070133;28;20109;-70
2022/04/17 09:40:26;;;;;;;9.60;6.20;;;22.10;61.60;;;;;;5075647;28;20121;-70
2022/04/17 09:43:11;;;;;;;7.90;5.65;;;24.40;56.20;;;;;;5086533;28;20091;-69
2022/04/17 09:45:57;;;;;;;8.52;5.20;;;26.30;50.20;;;;;;5088187;28;20049;-70
2022/04/17 09:48:23;;;;;;;7.65;5.22;;;28.20;47.30;;;;;;5087364;28;20447;-68
2022/04/17 09:50:49;;;;;;;8.70;5.55;;;29.50;44.90;;;;;;5086695;28;20484;-69
2022/04/17 09:53:35;;;;;;;8.13;5.40;;;30.80;42.70;;;;;;5088640;28;20043;-69
2022/04/17 09:56:07;;;;;;;;;;;32.30;41.40;;;;;;5112651;27;20052;-70
2022/04/17 09:58:37;;;;;;;6.70;5.10;;;33.30;39.00;;;;;;5108534;28;19947;-70
2022/04/17 10:01:03;;;;;;;8.07;5.05;;;34.10;37.30;;;;;;5110791;28;20086;-71
2022/04/17 10:03:29;;;;;;;7.38;5.13;;;34.70;36.40;;;;;;5112700;28;20387;-70
2022/04/17 10:05:56;;;;;;;6.90;5.05;;;35.00;36.30;;;;;;5108918;28;20155;-70
2022/04/17 10:08:26;;;;;;;6.63;5.18;;;35.60;35.50;;;;;;5108156;28;20039;-71
2022/04/17 10:10:51;;;;;;;7.28;4.82;;;36.20;35.20;;;;;;5106657;28;20179;-71
2022/04/17 10:13:19;;;;;;;7.97;4.93;;;37.00;35.50;;;;;;5096127;28;20089;-72
2022/04/17 10:15:47;;;;;;;6.65;4.70;;;37.80;33.80;;;;;;5087372;28;20497;-68
2022/04/17 10:18:14;;;;;;;9.70;4.80;;;38.30;33.90;;;;;;5118566;27;20071;-68
2022/04/17 10:20:41;;;;;;;6.20;4.65;;;38.60;34.00;;;;;;5115206;28;20066;-68
2022/04/17 10:23:09;;;;;;;7.13;4.43;;;39.20;33.40;;;;;;5086433;28;20122;-66
2022/04/17 10:25:36;;;;;;;7.18;5.03;;;40.10;33.60;;;;;;5109296;27;20480;-68
2022/04/17 10:28:06;;;;;;;6.00;4.63;;;40.40;33.40;;;;;;5092685;27;20172;-67
2022/04/17 10:30:48;;;;;;;6.95;3.90;;;40.80;32.60;;;;;;5133053;27;20046;-67
2022/04/17 10:33:42;;;;;;;8.82;4.50;;;40.50;33.20;;;;;;5130450;27;20391;-68
2022/04/17 10:36:41;;;;;;;6.45;4.00;;;41.00;32.80;;;;;;5107110;27;20422;-72
2022/04/17 10:39:13;;;;;;;4.40;3.35;;;41.30;31.40;;;;;;5100219;27;20717;-72
2022/04/17 10:41:41;;;;;;;6.32;3.30;;;41.70;31.30;;;;;;5107545;27;20050;-71
2022/04/17 10:44:10;;;;;;;6.45;4.30;;;42.30;31.30;;;;;;5117023;27;20089;-72
2022/04/17 10:46:51;;;;;;;6.10;4.00;;;42.40;30.20;;;;;;5088993;27;20032;-70
2022/04/17 10:49:21;;;;;;;6.05;3.90;;;41.90;30.20;;;;;;5112602;27;20122;-71
2022/04/17 10:51:59;;;;;;;5.25;3.60;;;41.70;30.10;;;;;;5094671;28;20051;-69
2022/04/17 10:54:45;;;;;;;4.63;3.40;;;41.70;29.70;;;;;;5116546;27;20395;-68
2022/04/17 10:57:11;;;;;;;4.97;3.40;;;41.10;29.60;;;;;;5118263;27;20143;-68
2022/04/17 10:59:37;;;;;;;5.45;3.17;;;40.90;29.40;;;;;;5115276;27;20075;-70
2022/04/17 11:02:24;;;;;;;4.93;3.53;;;41.80;29.60;;;;;;5094627;27;20066;-69
2022/04/17 11:04:53;;;;;;;6.03;3.60;;;42.10;29.30;;;;;;5119524;27;20081;-70
2022/04/17 11:07:27;;;;;;;4.25;3.00;;;42.20;29.10;;;;;;5128738;27;20396;-69
2022/04/17 11:10:20;;;;;;;6.25;3.22;;;42.10;29.10;;;;;;5114810;27;20139;-69
2022/04/17 11:12:53;;;;;;;4.45;3.40;;;42.70;28.80;;;;;;5100462;27;20040;-69
2022/04/17 11:15:19;;;;;;;5.28;3.30;;;43.10;28.70;;;;;;5094035;28;20047;-69
2022/04/17 11:17:48;;;;;;;4.50;3.03;;;42.70;28.40;;;;;;5107751;27;21427;-71
2022/04/17 11:20:15;;;;;;;4.93;3.30;;;41.80;28.50;;;;;;5098595;27;20482;-70
2022/04/17 11:22:41;;;;;;;5.00;3.20;;;42.10;28.60;;;;;;5114650;27;20039;-71
2022/04/17 11:25:08;;;;;;;4.97;2.80;;;42.10;28.50;;;;;;5119090;27;20031;-71
2022/04/17 11:27:47;;;;;;;4.97;3.22;;;42.70;28.70;;;;;;5093992;27;20391;-71
2022/04/17 11:30:16;;;;;;;5.40;3.25;;;43.40;29.00;;;;;;5105211;27;20048;-73
2022/04/17 11:32:41;;;;;;;4.47;3.10;;;43.30;28.10;;;;;;5096806;27;20040;-70
2022/04/17 11:35:11;;;;;;;5.20;3.30;;;43.40;28.20;;;;;;5108193;27;20088;-73
2022/04/17 11:37:37;;;;;;;5.13;3.30;;;42.30;28.20;;;;;;5110084;28;20044;-72
2022/04/17 11:40:15;;;;;;;6.78;3.40;;;41.30;28.10;;;;;;5093085;27;20039;-70
2022/04/17 11:42:44;;;;;;;4.25;3.10;;;41.00;28.20;;;;;;5089594;28;20044;-73
2022/04/17 11:45:12;;;;;;;5.97;3.00;;;40.60;28.10;;;;;;5110484;27;20044;-73
2022/04/17 11:47:39;;;;;;;4.18;3.20;;;39.70;28.30;;;;;;5123444;27;20039;-73
2022/04/17 11:50:10;;;;;;;4.63;2.90;;;39.10;28.00;;;;;;5110398;27;20046;-73
2022/04/17 11:52:37;;;;;;;4.68;3.10;;;38.60;28.40;;;;;;5115288;27;20048;-74
2022/04/17 11:55:07;;;;;;;4.47;3.08;;;38.30;28.60;;;;;;5110863;27;20062;-71
2022/04/17 11:57:33;;;;;;;5.03;3.00;;;38.40;28.40;;;;;;5110720;28;20051;-74
2022/04/17 12:00:00;;;;;;;4.07;2.88;;;37.90;28.70;;;;;;5091976;28;20035;-73
2022/04/17 12:02:28;;;;;;;3.75;2.83;;;38.30;28.60;;;;;;5110069;27;20043;-73
2022/04/17 12:04:57;;;;;;;4.10;2.75;;;38.20;28.40;;;;;;5100471;27;20086;-73
2022/04/17 12:07:25;;;;;;;4.97;2.80;;;38.30;28.60;;;;;;5110142;27;20043;-72
2022/04/17 12:10:02;;;;;;;4.68;2.90;;;38.80;28.60;;;;;;5078876;27;20123;-74
2022/04/17 12:12:34;;;;;;;5.82;3.10;;;39.00;28.10;;;;;;5119322;27;20043;-71
2022/04/17 12:15:03;;;;;;;9.48;3.33;;;37.90;28.00;;;;;;5089137;28;20054;-75
2022/04/17 12:17:31;;;;;;;5.82;3.25;;;37.20;27.60;;;;;;5106861;27;20035;-72
2022/04/17 12:19:57;;;;;;;5.07;3.30;;;36.40;28.40;;;;;;5111333;27;20078;-67
2022/04/17 12:22:22;;;;;;;6.05;3.55;;;35.80;28.80;;;;;;5114507;27;20098;-67
2022/04/17 12:24:48;;;;;;;6.75;3.33;;;36.20;29.30;;;;;;5104120;27;20108;-69
2022/04/17 12:27:20;;;;;;;4.40;3.15;;;36.40;28.90;;;;;;5105928;27;20075;-70
2022/04/17 12:29:51;;;;;;;5.00;3.50;;;36.00;28.60;;;;;;5095844;27;20061;-68
2022/04/17 12:32:19;;;;;;;5.72;3.50;;;34.90;28.70;;;;;;5108444;27;20075;-66
2022/04/17 12:34:45;;;;;;;6.07;3.72;;;33.10;28.80;;;;;;5102388;27;20645;-67
2022/04/17 12:37:37;;;;;;;6.38;3.55;;;30.70;30.00;;;;;;5108124;27;20040;-68
2022/04/17 12:40:06;;;;;;;5.75;4.10;;;28.50;31.40;;;;;;5105849;27;20080;-69
2022/04/17 12:42:32;;;;;;;7.93;4.53;;;27.30;32.30;;;;;;5119859;27;20096;-68
2022/04/17 12:45:00;;;;;;;5.97;4.00;;;26.20;33.30;;;;;;5095624;27;20031;-69
2022/04/17 12:47:26;;;;;;;6.80;4.25;;;25.00;34.20;;;;;;5111202;28;20118;-69
2022/04/17 12:50:00;;;;;;;8.43;4.50;;;24.20;35.30;;;;;;5110553;27;20217;-68
2022/04/17 12:52:26;;;;;;;7.00;4.35;;;23.60;35.70;;;;;;5112675;27;20048;-68
2022/04/17 12:54:53;;;;;;;7.13;4.43;;;23.00;36.00;;;;;;5113242;27;20550;-67
2022/04/17 12:57:21;;;;;;;6.35;4.43;;;22.40;36.50;;;;;;5111359;27;20054;-68
2022/04/17 12:59:49;;;;;;;7.55;4.30;;;21.90;37.40;;;;;;5090932;28;20079;-68
2022/04/17 13:02:17;;;;;;;7.15;4.80;;;21.60;37.80;;;;;;5115011;27;20054;-69
2022/04/17 13:04:45;;;;;;;7.82;4.80;;;21.40;38.40;;;;;;5090489;27;20191;-68
2022/04/17 13:07:15;;;;;;;6.13;4.80;;;20.90;38.50;;;;;;5093086;27;20326;-69